createdAt,value
2023-03-13T00:01:22.035Z,5.40
2023-03-13T00:06:23.481Z,5.40
2023-03-13T00:11:24.935Z,5.50
2023-03-13T00:16:26.439Z,5.50
2023-03-13T00:21:27.955Z,5.50
2023-03-13T00:26:29.452Z,5.50
2023-03-13T00:31:31.047Z,5.50
2023-03-13T00:36:32.621Z,5.60
2023-03-13T00:41:34.085Z,5.50
2023-03-13T00:46:35.763Z,5.50
2023-03-13T00:51:37.271Z,5.50
2023-03-13T00:56:38.712Z,5.50
2023-03-13T01:01:40.166Z,5.50
2023-03-13T01:06:41.593Z,5.50
2023-03-13T01:11:43.063Z,5.50
2023-03-13T01:16:44.499Z,5.50
2023-03-13T01:21:45.925Z,5.50
2023-03-13T01:26:47.400Z,5.60
2023-03-13T01:31:48.824Z,5.60
2023-03-13T01:36:50.263Z,5.60
2023-03-13T01:41:51.702Z,5.70
2023-03-13T01:46:53.129Z,5.70
2023-03-13T01:51:54.607Z,5.70
2023-03-13T01:56:56.091Z,5.70
2023-03-13T02:01:57.589Z,5.70
2023-03-13T02:06:59.053Z,5.70
2023-03-13T02:12:00.520Z,5.70
2023-03-13T02:17:01.954Z,5.70
2023-03-13T02:22:03.401Z,5.70
2023-03-13T02:27:04.838Z,5.70
2023-03-13T02:32:06.297Z,5.60
2023-03-13T02:37:07.761Z,5.50
2023-03-13T02:42:09.215Z,5.50
2023-03-13T02:47:10.679Z,5.40
2023-03-13T02:52:12.106Z,5.40
2023-03-13T02:57:13.571Z,5.40
2023-03-13T03:02:15.035Z,5.40
2023-03-13T03:07:16.491Z,5.50
2023-03-13T03:12:17.940Z,5.50
2023-03-13T03:17:19.405Z,5.50
2023-03-13T03:22:20.872Z,5.60
2023-03-13T03:27:22.289Z,5.60
2023-03-13T03:32:23.774Z,5.60
2023-03-13T03:37:25.213Z,5.60
2023-03-13T03:42:26.669Z,5.60
2023-03-13T03:47:28.142Z,5.60
2023-03-13T03:52:29.658Z,5.70
2023-03-13T03:57:31.107Z,5.80
2023-03-13T04:02:32.656Z,5.80
2023-03-13T04:07:34.097Z,5.80
2023-03-13T04:12:35.547Z,5.90
2023-03-13T04:17:37.011Z,6.00
2023-03-13T04:33:36.678Z,6.20
2023-03-13T04:38:38.179Z,6.20
2023-03-13T04:43:39.614Z,6.30
2023-03-13T04:48:41.077Z,6.40
2023-03-13T04:53:42.567Z,6.50
2023-03-13T04:58:46.585Z,6.60
2023-03-13T05:03:48.386Z,6.60
2023-03-13T05:08:49.868Z,6.60
2023-03-13T05:13:51.310Z,6.60
2023-03-13T05:18:52.760Z,6.60
2023-03-13T05:23:54.240Z,6.60
2023-03-13T05:28:55.664Z,6.60
2023-03-13T05:33:57.134Z,6.60
2023-03-13T05:38:58.561Z,6.60
2023-03-13T05:44:00.007Z,6.70
2023-03-13T05:49:01.451Z,6.80
2023-03-13T05:54:02.900Z,6.80
2023-03-13T05:59:04.379Z,6.80
2023-03-13T06:04:05.992Z,6.80
2023-03-13T06:09:07.578Z,6.90
2023-03-13T06:14:09.016Z,7.00
2023-03-13T06:19:10.430Z,7.10
2023-03-13T06:24:11.919Z,7.20
2023-03-13T06:29:13.396Z,7.30
2023-03-13T06:34:14.815Z,7.30
2023-03-13T06:39:16.239Z,7.40
2023-03-13T06:44:17.702Z,7.50
2023-03-13T06:49:19.128Z,7.70
2023-03-13T06:54:20.579Z,7.90
2023-03-13T06:59:22.086Z,8.10
2023-03-13T07:04:23.607Z,8.30
2023-03-13T07:09:25.140Z,8.60
2023-03-13T07:14:26.611Z,9.00
2023-03-13T07:19:28.064Z,9.30
2023-03-13T07:24:29.718Z,9.50
2023-03-13T07:29:31.237Z,9.80
2023-03-13T07:34:32.699Z,10.00
2023-03-13T07:39:34.138Z,10.30
2023-03-13T07:44:35.595Z,10.70
2023-03-13T07:49:37.021Z,10.90
2023-03-13T07:54:38.484Z,10.80
2023-03-13T07:59:39.958Z,10.70
2023-03-13T08:04:41.384Z,10.70
2023-03-13T08:09:42.837Z,10.70
2023-03-13T08:14:44.270Z,10.70
2023-03-13T08:19:45.737Z,10.80
2023-03-13T08:24:47.184Z,11.00
2023-03-13T08:29:48.615Z,11.00
2023-03-13T08:34:50.097Z,11.10
2023-03-13T08:39:51.539Z,11.20
2023-03-13T08:44:52.981Z,11.30
2023-03-13T08:49:54.407Z,11.40
2023-03-13T08:54:55.875Z,11.40
2023-03-13T08:59:57.324Z,11.50
2023-03-13T09:04:58.752Z,11.60
2023-03-13T09:10:00.257Z,11.70
2023-03-13T09:15:01.690Z,11.80
2023-03-13T09:20:03.139Z,11.90
2023-03-13T09:25:04.587Z,11.90
2023-03-13T09:30:06.109Z,12.00
2023-03-13T09:35:07.573Z,12.10
2023-03-13T09:40:09.113Z,12.20
2023-03-13T09:45:10.582Z,12.20
2023-03-13T09:50:12.017Z,12.30
2023-03-13T09:55:13.487Z,12.20
2023-03-13T10:00:28.294Z,12.10
2023-03-13T10:05:42.667Z,12.20
2023-03-13T10:10:44.125Z,12.20
2023-03-13T10:15:45.660Z,12.00
2023-03-13T10:20:47.155Z,11.80
2023-03-13T10:25:48.647Z,11.50
2023-03-13T10:30:50.282Z,11.30
2023-03-13T10:35:51.821Z,11.10
2023-03-13T10:40:53.303Z,10.90
2023-03-13T10:45:54.761Z,10.70
2023-03-13T10:50:56.181Z,10.60
2023-03-13T10:55:57.651Z,10.50
2023-03-13T11:00:59.086Z,10.50
2023-03-13T11:06:00.532Z,10.50
2023-03-13T11:11:01.989Z,10.60
2023-03-13T11:16:03.554Z,10.60
2023-03-13T11:21:17.273Z,10.60
2023-03-13T11:26:19.514Z,10.70
2023-03-13T11:31:21.390Z,10.80
2023-03-13T11:36:22.882Z,10.90
2023-03-13T11:41:24.364Z,11.20
2023-03-13T11:46:26.016Z,11.30
2023-03-13T11:51:27.620Z,11.50
2023-03-13T11:56:29.090Z,11.50
2023-03-13T12:01:30.533Z,11.50
2023-03-13T12:06:32.053Z,11.50
2023-03-13T12:11:33.609Z,11.60
2023-03-13T12:16:35.076Z,11.60
2023-03-13T12:21:36.574Z,11.70
2023-03-13T12:26:38.038Z,11.70
2023-03-13T12:31:39.463Z,11.70
2023-03-13T12:36:40.937Z,11.70
2023-03-13T12:41:42.401Z,11.70
2023-03-13T12:46:43.907Z,11.80
2023-03-13T12:51:45.367Z,11.90
2023-03-13T12:56:46.800Z,12.10
2023-03-13T13:01:48.314Z,12.00
2023-03-13T13:06:49.804Z,12.00
2023-03-13T13:11:51.230Z,12.00
2023-03-13T13:16:52.735Z,12.00
2023-03-13T13:21:54.215Z,12.10
2023-03-13T13:26:55.689Z,12.10
2023-03-13T13:31:57.250Z,12.30
2023-03-13T13:36:58.813Z,12.30
2023-03-13T13:42:00.296Z,12.30
2023-03-13T13:47:01.793Z,12.40
2023-03-13T13:52:03.312Z,12.40
2023-03-13T13:57:04.831Z,12.40
2023-03-13T14:02:09.290Z,12.50
2023-03-13T14:07:11.173Z,12.50
2023-03-13T14:12:12.657Z,12.60
2023-03-13T14:17:14.093Z,12.60
2023-03-13T14:22:15.512Z,12.60
2023-03-13T14:27:16.941Z,12.70
2023-03-13T14:32:18.417Z,12.70
2023-03-13T14:37:19.887Z,12.80
2023-03-13T14:42:21.366Z,12.80
2023-03-13T14:47:22.814Z,12.90
2023-03-13T14:52:24.280Z,12.90
2023-03-13T14:57:27.141Z,12.90
2023-03-13T15:02:28.880Z,12.90
2023-03-13T15:07:30.359Z,12.90
2023-03-13T15:12:31.821Z,13.00
2023-03-13T15:17:33.261Z,13.10
2023-03-13T15:22:34.755Z,13.20
2023-03-13T15:27:36.228Z,13.10
2023-03-13T15:38:27.219Z,13.10
2023-03-13T15:43:28.648Z,13.10
2023-03-13T15:48:30.102Z,13.20
2023-03-13T15:53:31.608Z,13.20
2023-03-13T15:58:33.045Z,13.20
2023-03-13T16:03:34.514Z,13.20
2023-03-13T16:08:36.431Z,13.20
2023-03-13T16:13:38.554Z,13.10
2023-03-13T16:18:40.049Z,13.00
2023-03-13T16:23:41.494Z,12.80
2023-03-13T16:28:42.912Z,12.70
2023-03-13T16:33:44.362Z,12.50
2023-03-13T16:38:45.839Z,12.40
2023-03-13T16:43:47.272Z,12.30
2023-03-13T16:48:48.708Z,12.30
2023-03-13T16:53:50.184Z,12.20
2023-03-13T16:58:51.668Z,12.20
2023-03-13T17:03:53.151Z,12.10
2023-03-13T17:08:54.646Z,12.00
2023-03-13T17:13:56.087Z,11.90
2023-03-13T17:18:57.512Z,11.80
2023-03-13T17:23:58.966Z,11.90
2023-03-13T17:29:00.452Z,11.90
2023-03-13T17:34:01.942Z,11.90
2023-03-13T17:39:03.420Z,12.00
2023-03-13T17:44:04.901Z,12.00
2023-03-13T17:49:06.406Z,12.00
2023-03-13T17:54:09.834Z,11.90
2023-03-13T17:59:11.338Z,11.80
2023-03-13T18:04:12.806Z,11.70
2023-03-13T18:09:14.256Z,11.50
2023-03-13T18:14:15.734Z,11.40
2023-03-13T18:19:17.181Z,11.40
2023-03-13T18:24:18.665Z,11.40
2023-03-13T18:29:20.111Z,11.30
2023-03-13T18:34:21.576Z,11.40
2023-03-13T18:39:23.026Z,11.40
2023-03-13T18:44:24.499Z,11.40
2023-03-13T18:49:25.927Z,11.60
2023-03-13T18:54:27.470Z,11.80
2023-03-13T18:59:28.955Z,11.70
2023-03-13T19:04:30.466Z,11.60
2023-03-13T19:09:43.243Z,11.50
2023-03-13T19:14:44.866Z,11.40
2023-03-13T19:19:46.319Z,11.40
2023-03-13T19:24:47.776Z,11.40
2023-03-13T19:29:50.293Z,11.40
2023-03-13T19:34:51.759Z,11.50
2023-03-13T19:39:53.201Z,11.50
2023-03-13T19:44:54.659Z,11.50
2023-03-13T19:49:57.521Z,11.40
2023-03-13T19:54:59.565Z,11.40
2023-03-13T20:00:01.047Z,11.30
2023-03-13T20:05:02.526Z,11.20
2023-03-13T20:10:04.070Z,11.20
2023-03-13T20:15:25.565Z,11.10
2023-03-13T20:20:27.078Z,11.10
2023-03-13T20:25:28.576Z,11.10
2023-03-13T20:30:30.065Z,11.00
2023-03-13T20:35:31.549Z,10.90
2023-03-13T20:40:33.046Z,10.80
2023-03-13T20:45:36.871Z,10.90
2023-03-13T20:50:38.334Z,10.90
2023-03-13T20:55:41.834Z,10.90
2023-03-13T21:00:43.286Z,11.00
2023-03-13T21:05:44.773Z,11.00
2023-03-13T21:10:46.245Z,11.00
2023-03-13T21:15:47.741Z,11.00
2023-03-13T21:20:49.184Z,11.00
2023-03-13T21:25:50.670Z,11.00
2023-03-13T21:30:52.142Z,11.10
2023-03-13T21:35:53.674Z,11.10
2023-03-13T21:41:15.129Z,11.00
2023-03-13T21:46:16.681Z,11.00
2023-03-13T21:51:18.208Z,11.00
2023-03-13T21:56:19.657Z,11.00
2023-03-13T22:01:21.167Z,11.00
2023-03-13T22:06:22.654Z,10.90
2023-03-13T22:11:24.071Z,10.90
2023-03-13T22:16:25.518Z,10.90
2023-03-13T22:21:26.945Z,10.90
2023-03-13T22:26:28.408Z,11.00
2023-03-13T22:31:29.881Z,11.00
2023-03-13T22:36:31.306Z,11.10
2023-03-13T22:41:32.753Z,11.10
2023-03-13T22:46:34.171Z,11.20
2023-03-13T22:51:35.576Z,11.10
2023-03-13T22:56:37.033Z,11.00
2023-03-13T23:01:38.505Z,11.00
2023-03-13T23:06:39.977Z,10.90
2023-03-13T23:11:41.685Z,10.90
2023-03-13T23:16:43.265Z,10.90
2023-03-13T23:21:44.677Z,10.90
2023-03-13T23:26:46.167Z,10.80
2023-03-13T23:31:47.621Z,10.70
2023-03-13T23:36:49.090Z,10.60
2023-03-13T23:41:52.128Z,10.60
2023-03-13T23:46:53.556Z,10.40
2023-03-13T23:51:54.996Z,10.30
2023-03-13T23:56:56.455Z,10.10
